sensor_id;sensor_type;location;lat;lon;timestamp;pressure;altitude;pressure_sealevel;temperature;humidity
19286;BME280;9776;50.798;6.430;2022-10-22T00:01:05;99618.63;;;15.66;76.69
19286;BME280;9776;50.798;6.430;2022-10-22T00:03:32;99620.88;;;15.69;76.85
19286;BME280;9776;50.798;6.430;2022-10-22T00:05:59;99610.66;;;15.66;76.67
19286;BME280;9776;50.798;6.430;2022-10-22T00:08:26;99622.13;;;15.67;76.84
19286;BME280;9776;50.798;6.430;2022-10-22T00:10:53;99615.97;;;15.66;76.90
19286;BME280;9776;50.798;6.430;2022-10-22T00:13:21;99618.63;;;15.66;76.86
19286;BME280;9776;50.798;6.430;2022-10-22T00:15:48;99610.66;;;15.66;76.61
19286;BME280;9776;50.798;6.430;2022-10-22T00:18:14;99619.25;;;15.68;76.44
19286;BME280;9776;50.798;6.430;2022-10-22T00:20:41;99619.06;;;15.70;76.57
19286;BME280;9776;50.798;6.430;2022-10-22T00:23:08;99615.34;;;15.71;76.46
19286;BME280;9776;50.798;6.430;2022-10-22T00:25:35;99613.53;;;15.71;76.49
19286;BME280;9776;50.798;6.430;2022-10-22T00:28:02;99616.78;;;15.73;76.14
19286;BME280;9776;50.798;6.430;2022-10-22T00:30:30;99609.63;;;15.74;76.02
19286;BME280;9776;50.798;6.430;2022-10-22T00:32:56;99605.31;;;15.73;76.09
19286;BME280;9776;50.798;6.430;2022-10-22T00:35:23;99612.28;;;15.74;75.96
19286;BME280;9776;50.798;6.430;2022-10-22T00:37:49;99606.53;;;15.70;76.04
19286;BME280;9776;50.798;6.430;2022-10-22T00:40:16;99611.06;;;15.70;75.86
19286;BME280;9776;50.798;6.430;2022-10-22T00:42:43;99615.34;;;15.71;75.85
19286;BME280;9776;50.798;6.430;2022-10-22T00:45:17;99619.66;;;15.72;75.98
19286;BME280;9776;50.798;6.430;2022-10-22T00:47:51;99629.28;;;15.73;75.85
19286;BME280;9776;50.798;6.430;2022-10-22T00:50:23;99625.81;;;15.72;76.01
19286;BME280;9776;50.798;6.430;2022-10-22T00:52:53;99619.25;;;15.68;76.00
19286;BME280;9776;50.798;6.430;2022-10-22T00:55:21;99616.78;;;15.67;76.32
19286;BME280;9776;50.798;6.430;2022-10-22T00:57:49;99612.09;;;15.69;76.30
19286;BME280;9776;50.798;6.430;2022-10-22T01:00:16;99617.19;;;15.70;76.28
19286;BME280;9776;50.798;6.430;2022-10-22T01:02:42;99611.47;;;15.73;76.19
19286;BME280;9776;50.798;6.430;2022-10-22T01:05:11;99618.03;;;15.77;76.51
19286;BME280;9776;50.798;6.430;2022-10-22T01:07:42;99618.03;;;15.77;76.44
19286;BME280;9776;50.798;6.430;2022-10-22T01:10:17;99618.66;;;15.79;76.36
19286;BME280;9776;50.798;6.430;2022-10-22T01:12:52;99616.00;;;15.79;76.52
19286;BME280;9776;50.798;6.430;2022-10-22T01:15:23;99614.16;;;15.80;76.23
19286;BME280;9776;50.798;6.430;2022-10-22T01:17:58;99615.00;;;15.80;76.28
19286;BME280;9776;50.798;6.430;2022-10-22T01:20:43;99616.22;;;15.78;76.33
19286;BME280;9776;50.798;6.430;2022-10-22T01:23:20;99602.09;;;15.77;76.59
19286;BME280;9776;50.798;6.430;2022-10-22T01:25:55;99609.44;;;15.75;76.75
19286;BME280;9776;50.798;6.430;2022-10-22T01:28:37;99612.13;;;15.75;76.56
19286;BME280;9776;50.798;6.430;2022-10-22T01:31:07;99614.78;;;15.75;76.66
19286;BME280;9776;50.798;6.430;2022-10-22T01:33:38;99603.31;;;15.75;76.74
19286;BME280;9776;50.798;6.430;2022-10-22T01:36:06;99605.75;;;15.76;76.85
19286;BME280;9776;50.798;6.430;2022-10-22T01:38:33;99604.53;;;15.79;76.78
19286;BME280;9776;50.798;6.430;2022-10-22T01:41:00;99599.03;;;15.80;76.94
19286;BME280;9776;50.798;6.430;2022-10-22T01:43:27;99612.34;;;15.87;76.77
19286;BME280;9776;50.798;6.430;2022-10-22T01:45:58;99611.53;;;15.86;76.81
19286;BME280;9776;50.798;6.430;2022-10-22T01:48:34;99615.81;;;15.87;76.33
19286;BME280;9776;50.798;6.430;2022-10-22T01:51:25;99618.88;;;15.84;76.44
19286;BME280;9776;50.798;6.430;2022-10-22T01:53:59;99625.84;;;15.85;76.87
19286;BME280;9776;50.798;6.430;2022-10-22T01:56:37;99628.28;;;15.80;76.53
19286;BME280;9776;50.798;6.430;2022-10-22T01:59:15;99622.53;;;15.77;76.72
19286;BME280;9776;50.798;6.430;2022-10-22T02:01:53;99623.75;;;15.74;77.17
19286;BME280;9776;50.798;6.430;2022-10-22T02:04:27;99624.38;;;15.70;76.95
19286;BME280;9776;50.798;6.430;2022-10-22T02:06:58;99615.09;;;15.59;77.49
19286;BME280;9776;50.798;6.430;2022-10-22T02:09:27;99616.50;;;15.49;77.42
19286;BME280;9776;50.798;6.430;2022-10-22T02:11:55;99617.06;;;15.44;77.35
19286;BME280;9776;50.798;6.430;2022-10-22T02:14:24;99607.84;;;15.40;77.69
19286;BME280;9776;50.798;6.430;2022-10-22T02:16:55;99617.00;;;15.31;77.80
19286;BME280;9776;50.798;6.430;2022-10-22T02:19:26;99613.91;;;15.27;77.78
19286;BME280;9776;50.798;6.430;2022-10-22T02:21:53;99617.56;;;15.20;77.70
19286;BME280;9776;50.798;6.430;2022-10-22T02:24:21;99618.97;;;15.16;77.88
19286;BME280;9776;50.798;6.430;2022-10-22T02:26:51;99621.19;;;15.12;77.89
19286;BME280;9776;50.798;6.430;2022-10-22T02:29:24;99616.50;;;15.14;77.99
19286;BME280;9776;50.798;6.430;2022-10-22T02:31:56;99616.50;;;15.14;77.85
19286;BME280;9776;50.798;6.430;2022-10-22T02:34:27;99612.81;;;15.15;78.18
19286;BME280;9776;50.798;6.430;2022-10-22T02:36:56;99615.47;;;15.15;78.08
19286;BME280;9776;50.798;6.430;2022-10-22T02:39:24;99610.38;;;15.14;78.24
19286;BME280;9776;50.798;6.430;2022-10-22T02:41:51;99609.50;;;15.07;78.38
19286;BME280;9776;50.798;6.430;2022-10-22T02:44:21;99602.94;;;15.03;78.53
19286;BME280;9776;50.798;6.430;2022-10-22T02:46:48;99615.59;;;15.01;78.47
19286;BME280;9776;50.798;6.430;2022-10-22T02:49:16;99619.28;;;15.00;78.55
19286;BME280;9776;50.798;6.430;2022-10-22T02:51:43;99613.53;;;14.96;78.82
19286;BME280;9776;50.798;6.430;2022-10-22T02:54:09;99613.53;;;14.96;79.03
19286;BME280;9776;50.798;6.430;2022-10-22T02:56:36;99620.28;;;14.99;78.95
19286;BME280;9776;50.798;6.430;2022-10-22T02:59:03;99621.50;;;14.96;78.76
19286;BME280;9776;50.798;6.430;2022-10-22T03:01:29;99615.56;;;14.94;79.15
19286;BME280;9776;50.798;6.430;2022-10-22T03:03:56;99620.06;;;14.94;79.06
19286;BME280;9776;50.798;6.430;2022-10-22T03:06:24;99614.34;;;14.97;79.43
19286;BME280;9776;50.798;6.430;2022-10-22T03:08:51;99620.66;;;14.96;79.37
19286;BME280;9776;50.798;6.430;2022-10-22T03:11:17;99628.84;;;14.94;79.28
19286;BME280;9776;50.798;6.430;2022-10-22T03:13:44;99631.69;;;14.93;79.64
19286;BME280;9776;50.798;6.430;2022-10-22T03:16:10;99635.13;;;14.87;79.75
19286;BME280;9776;50.798;6.430;2022-10-22T03:18:37;99640.19;;;14.82;79.61
19286;BME280;9776;50.798;6.430;2022-10-22T03:21:09;99636.94;;;14.80;79.85
19286;BME280;9776;50.798;6.430;2022-10-22T03:23:39;99639.75;;;14.78;79.75
19286;BME280;9776;50.798;6.430;2022-10-22T03:26:08;99641.59;;;14.77;79.91
19286;BME280;9776;50.798;6.430;2022-10-22T03:28:36;99637.31;;;14.76;79.74
19286;BME280;9776;50.798;6.430;2022-10-22T03:31:05;99638.94;;;14.77;80.01
19286;BME280;9776;50.798;6.430;2022-10-22T03:33:32;99639.19;;;14.83;79.76
19286;BME280;9776;50.798;6.430;2022-10-22T03:35:59;99640.44;;;14.87;79.83
19286;BME280;9776;50.798;6.430;2022-10-22T03:38:26;99637.22;;;14.91;80.13
19286;BME280;9776;50.798;6.430;2022-10-22T03:40:54;99642.31;;;14.93;80.09
19286;BME280;9776;50.798;6.430;2022-10-22T03:43:21;99640.31;;;14.95;80.09
19286;BME280;9776;50.798;6.430;2022-10-22T03:45:47;99635.63;;;14.97;80.16
19286;BME280;9776;50.798;6.430;2022-10-22T03:48:14;99644.44;;;15.04;80.08
19286;BME280;9776;50.798;6.430;2022-10-22T03:50:40;99641.59;;;15.05;80.12
19286;BME280;9776;50.798;6.430;2022-10-22T03:53:07;99639.75;;;15.06;79.93
19286;BME280;9776;50.798;6.430;2022-10-22T03:55:35;99650.63;;;15.11;79.81
19286;BME280;9776;50.798;6.430;2022-10-22T03:58:03;99654.94;;;15.12;79.79
19286;BME280;9776;50.798;6.430;2022-10-22T04:00:30;99661.25;;;15.11;79.77
19286;BME280;9776;50.798;6.430;2022-10-22T04:02:57;99660.44;;;15.10;80.02
19286;BME280;9776;50.798;6.430;2022-10-22T04:05:23;99672.06;;;15.09;79.98
19286;BME280;9776;50.798;6.430;2022-10-22T04:07:50;99671.88;;;15.11;79.61
19286;BME280;9776;50.798;6.430;2022-10-22T04:10:16;99663.91;;;15.11;79.69
19286;BME280;9776;50.798;6.430;2022-10-22T04:12:46;99681.13;;;15.15;79.67
19286;BME280;9776;50.798;6.430;2022-10-22T04:15:14;99679.28;;;15.15;79.20
19286;BME280;9776;50.798;6.430;2022-10-22T04:17:40;99687.06;;;15.17;79.26
19286;BME280;9776;50.798;6.430;2022-10-22T04:20:08;99691.78;;;15.21;79.05
19286;BME280;9776;50.798;6.430;2022-10-22T04:22:35;99689.34;;;15.20;78.65
19286;BME280;9776;50.798;6.430;2022-10-22T04:25:03;99688.91;;;15.16;78.73
19286;BME280;9776;50.798;6.430;2022-10-22T04:27:30;99693.38;;;15.16;78.52
19286;BME280;9776;50.798;6.430;2022-10-22T04:29:58;99688.72;;;15.18;78.50
19286;BME280;9776;50.798;6.430;2022-10-22T04:32:26;99691.78;;;15.21;78.48
19286;BME280;9776;50.798;6.430;2022-10-22T04:34:53;99690.97;;;15.21;77.97
19286;BME280;9776;50.798;6.430;2022-10-22T04:37:19;99687.28;;;15.22;77.96
19286;BME280;9776;50.798;6.430;2022-10-22T04:39:46;99691.59;;;15.23;77.66
19286;BME280;9776;50.798;6.430;2022-10-22T04:42:13;99688.31;;;15.21;77.91
19286;BME280;9776;50.798;6.430;2022-10-22T04:44:39;99686.47;;;15.21;77.78
19286;BME280;9776;50.798;6.430;2022-10-22T04:47:06;99686.84;;;15.18;77.52
19286;BME280;9776;50.798;6.430;2022-10-22T04:49:34;99696.28;;;15.21;77.52
19286;BME280;9776;50.798;6.430;2022-10-22T04:52:00;99695.03;;;15.17;77.02
19286;BME280;9776;50.798;6.430;2022-10-22T04:54:27;99710.16;;;15.16;77.21
19286;BME280;9776;50.798;6.430;2022-10-22T04:56:54;99701.56;;;15.14;76.82
19286;BME280;9776;50.798;6.430;2022-10-22T04:59:20;99707.88;;;15.13;76.47
19286;BME280;9776;50.798;6.430;2022-10-22T05:01:47;99711.16;;;15.09;76.44
19286;BME280;9776;50.798;6.430;2022-10-22T05:04:16;99711.31;;;15.07;76.28
19286;BME280;9776;50.798;6.430;2022-10-22T05:06:45;99719.88;;;15.03;76.09
19286;BME280;9776;50.798;6.430;2022-10-22T05:09:15;99721.88;;;15.01;75.63
19286;BME280;9776;50.798;6.430;2022-10-22T05:11:43;99724.75;;;14.99;75.72
19286;BME280;9776;50.798;6.430;2022-10-22T05:14:14;99726.41;;;15.00;75.26
19286;BME280;9776;50.798;6.430;2022-10-22T05:16:41;99726.97;;;14.96;74.79
19286;BME280;9776;50.798;6.430;2022-10-22T05:19:14;99731.28;;;14.97;74.46
19286;BME280;9776;50.798;6.430;2022-10-22T05:21:41;99734.94;;;14.96;74.35
19286;BME280;9776;50.798;6.430;2022-10-22T05:24:10;99729.63;;;14.96;74.03
19286;BME280;9776;50.798;6.430;2022-10-22T05:26:36;99733.31;;;14.95;73.93
19286;BME280;9776;50.798;6.430;2022-10-22T05:29:03;99738.63;;;14.95;73.92
19286;BME280;9776;50.798;6.430;2022-10-22T05:31:30;99736.16;;;14.93;73.71
19286;BME280;9776;50.798;6.430;2022-10-22T05:33:56;99736.97;;;14.94;73.51
19286;BME280;9776;50.798;6.430;2022-10-22T05:36:23;99746.16;;;14.91;73.43
19286;BME280;9776;50.798;6.430;2022-10-22T05:38:50;99739.81;;;14.92;73.07
19286;BME280;9776;50.798;6.430;2022-10-22T05:41:20;99745.94;;;14.93;73.18
19286;BME280;9776;50.798;6.430;2022-10-22T05:43:47;99747.78;;;14.92;73.05
19286;BME280;9776;50.798;6.430;2022-10-22T05:46:16;99742.06;;;14.89;72.93
19286;BME280;9776;50.798;6.430;2022-10-22T05:48:43;99747.38;;;14.89;73.04
19286;BME280;9776;50.798;6.430;2022-10-22T05:51:11;99758.63;;;14.91;72.72
19286;BME280;9776;50.798;6.430;2022-10-22T05:53:39;99763.09;;;14.90;72.81
19286;BME280;9776;50.798;6.430;2022-10-22T05:56:10;99767.22;;;14.93;73.03
19286;BME280;9776;50.798;6.430;2022-10-22T05:58:39;99771.53;;;14.94;72.68
19286;BME280;9776;50.798;6.430;2022-10-22T06:01:08;99769.88;;;14.93;72.72
19286;BME280;9776;50.798;6.430;2022-10-22T06:03:36;99770.06;;;14.91;72.74
19286;BME280;9776;50.798;6.430;2022-10-22T06:06:06;99772.91;;;14.90;72.60
19286;BME280;9776;50.798;6.430;2022-10-22T06:08:36;99776.22;;;14.92;72.81
19286;BME280;9776;50.798;6.430;2022-10-22T06:11:03;99781.16;;;14.95;72.79
19286;BME280;9776;50.798;6.430;2022-10-22T06:13:30;99779.88;;;14.91;72.66
19286;BME280;9776;50.798;6.430;2022-10-22T06:15:58;99781.31;;;14.93;72.71
19286;BME280;9776;50.798;6.430;2022-10-22T06:18:25;99788.47;;;14.93;72.47
19286;BME280;9776;50.798;6.430;2022-10-22T06:20:52;99789.13;;;14.95;72.45
19286;BME280;9776;50.798;6.430;2022-10-22T06:23:18;99793.03;;;14.99;72.58
19286;BME280;9776;50.798;6.430;2022-10-22T06:25:55;99797.97;;;15.02;72.37
19286;BME280;9776;50.798;6.430;2022-10-22T06:28:22;99805.56;;;15.05;72.17
19286;BME280;9776;50.798;6.430;2022-10-22T06:30:48;99822.13;;;15.07;72.09
19286;BME280;9776;50.798;6.430;2022-10-22T06:33:16;99802.13;;;15.11;72.13
19286;BME280;9776;50.798;6.430;2022-10-22T06:35:43;99816.69;;;15.15;72.22
19286;BME280;9776;50.798;6.430;2022-10-22T06:38:10;99821.53;;;15.32;71.35
19286;BME280;9776;50.798;6.430;2022-10-22T06:40:36;99815.97;;;15.27;71.99
19286;BME280;9776;50.798;6.430;2022-10-22T06:43:03;99817.00;;;15.26;72.00
19286;BME280;9776;50.798;6.430;2022-10-22T06:45:30;99821.13;;;15.29;71.90
19286;BME280;9776;50.798;6.430;2022-10-22T06:47:57;99819.47;;;15.28;71.61
19286;BME280;9776;50.798;6.430;2022-10-22T06:50:25;99822.75;;;15.30;71.87
19286;BME280;9776;50.798;6.430;2022-10-22T06:52:51;99827.22;;;15.29;71.61
19286;BME280;9776;50.798;6.430;2022-10-22T06:55:18;99830.47;;;15.25;71.78
19286;BME280;9776;50.798;6.430;2022-10-22T06:57:45;99839.28;;;15.25;72.09
19286;BME280;9776;50.798;6.430;2022-10-22T07:00:12;99839.44;;;15.24;72.07
19286;BME280;9776;50.798;6.430;2022-10-22T07:02:39;99849.72;;;15.27;71.93
19286;BME280;9776;50.798;6.430;2022-10-22T07:05:07;99856.69;;;15.28;72.13
19286;BME280;9776;50.798;6.430;2022-10-22T07:07:35;99855.84;;;15.27;72.52
19286;BME280;9776;50.798;6.430;2022-10-22T07:10:02;99866.50;;;15.27;72.46
19286;BME280;9776;50.798;6.430;2022-10-22T07:12:28;99869.34;;;15.26;72.70
19286;BME280;9776;50.798;6.430;2022-10-22T07:14:55;99871.81;;;15.27;72.68
19286;BME280;9776;50.798;6.430;2022-10-22T07:17:22;99876.28;;;15.27;72.74
19286;BME280;9776;50.798;6.430;2022-10-22T07:19:48;99877.31;;;15.26;72.74
19286;BME280;9776;50.798;6.430;2022-10-22T07:22:15;99880.00;;;15.26;72.71
19286;BME280;9776;50.798;6.430;2022-10-22T07:24:43;99887.75;;;15.27;72.56
19286;BME280;9776;50.798;6.430;2022-10-22T07:27:09;99894.72;;;15.28;72.64
19286;BME280;9776;50.798;6.430;2022-10-22T07:29:36;99903.09;;;15.25;73.18
19286;BME280;9776;50.798;6.430;2022-10-22T07:32:03;99899.59;;;15.25;73.02
19286;BME280;9776;50.798;6.430;2022-10-22T07:34:29;99905.00;;;15.31;72.71
19286;BME280;9776;50.798;6.430;2022-10-22T07:36:56;99915.28;;;15.41;72.56
19286;BME280;9776;50.798;6.430;2022-10-22T07:39:23;99922.00;;;15.52;72.37
19286;BME280;9776;50.798;6.430;2022-10-22T07:41:51;99919.03;;;15.68;71.92
19286;BME280;9776;50.798;6.430;2022-10-22T07:44:18;99927.78;;;15.83;71.36
19286;BME280;9776;50.798;6.430;2022-10-22T07:46:45;99935.66;;;15.98;71.24
19286;BME280;9776;50.798;6.430;2022-10-22T07:49:11;99938.00;;;16.07;70.98
19286;BME280;9776;50.798;6.430;2022-10-22T07:51:38;99946.84;;;16.14;70.45
19286;BME280;9776;50.798;6.430;2022-10-22T07:54:05;99952.00;;;16.16;70.63
19286;BME280;9776;50.798;6.430;2022-10-22T07:56:31;99949.94;;;16.18;70.33
19286;BME280;9776;50.798;6.430;2022-10-22T07:58:59;99956.94;;;16.19;70.16
19286;BME280;9776;50.798;6.430;2022-10-22T08:01:26;99954.50;;;16.24;70.09
19286;BME280;9776;50.798;6.430;2022-10-22T08:03:52;99964.16;;;16.31;69.73
19286;BME280;9776;50.798;6.430;2022-10-22T08:06:19;99966.88;;;16.38;69.75
19286;BME280;9776;50.798;6.430;2022-10-22T08:08:46;99972.44;;;16.43;69.72
19286;BME280;9776;50.798;6.430;2022-10-22T08:11:12;99966.09;;;16.44;69.51
19286;BME280;9776;50.798;6.430;2022-10-22T08:13:39;99972.91;;;16.53;69.02
19286;BME280;9776;50.798;6.430;2022-10-22T08:16:07;99972.00;;;16.67;68.86
19286;BME280;9776;50.798;6.430;2022-10-22T08:18:33;99978.16;;;16.74;68.63
19286;BME280;9776;50.798;6.430;2022-10-22T08:21:00;99983.16;;;16.84;68.43
19286;BME280;9776;50.798;6.430;2022-10-22T08:23:27;99989.91;;;16.86;68.30
19286;BME280;9776;50.798;6.430;2022-10-22T08:25:54;99988.13;;;16.93;68.09
19286;BME280;9776;50.798;6.430;2022-10-22T08:28:21;99988.13;;;17.00;67.98
19286;BME280;9776;50.798;6.430;2022-10-22T08:30:48;99998.25;;;17.11;67.80
19286;BME280;9776;50.798;6.430;2022-10-22T08:33:16;99998.91;;;17.20;67.44
19286;BME280;9776;50.798;6.430;2022-10-22T08:35:46;100008.53;;;17.27;67.16
19286;BME280;9776;50.798;6.430;2022-10-22T08:38:13;100002.19;;;17.28;67.26
19286;BME280;9776;50.798;6.430;2022-10-22T08:40:40;99999.13;;;17.38;66.86
19286;BME280;9776;50.798;6.430;2022-10-22T08:43:23;99997.72;;;17.42;66.64
19286;BME280;9776;50.798;6.430;2022-10-22T08:46:05;100003.47;;;17.52;66.42
19286;BME280;9776;50.798;6.430;2022-10-22T08:48:42;100009.25;;;17.55;66.22
19286;BME280;9776;50.798;6.430;2022-10-22T08:51:13;100011.94;;;17.55;66.28
19286;BME280;9776;50.798;6.430;2022-10-22T08:53:48;100014.03;;;17.60;66.05
19286;BME280;9776;50.798;6.430;2022-10-22T08:56:17;100017.88;;;17.57;65.93
19286;BME280;9776;50.798;6.430;2022-10-22T08:58:48;100016.63;;;17.53;66.20
19286;BME280;9776;50.798;6.430;2022-10-22T09:01:21;100024.44;;;17.55;65.91
19286;BME280;9776;50.798;6.430;2022-10-22T09:03:54;100026.31;;;17.54;65.82
19286;BME280;9776;50.798;6.430;2022-10-22T09:06:25;100030.63;;;17.55;65.82
19286;BME280;9776;50.798;6.430;2022-10-22T09:08:52;100039.22;;;17.57;65.82
19286;BME280;9776;50.798;6.430;2022-10-22T09:11:25;100032.28;;;17.63;65.65
19286;BME280;9776;50.798;6.430;2022-10-22T09:13:54;100040.50;;;17.62;65.52
19286;BME280;9776;50.798;6.430;2022-10-22T09:16:25;100037.22;;;17.60;65.47
19286;BME280;9776;50.798;6.430;2022-10-22T09:19:06;100046.84;;;17.54;65.62
19286;BME280;9776;50.798;6.430;2022-10-22T09:21:45;100041.88;;;17.51;65.49
19286;BME280;9776;50.798;6.430;2022-10-22T09:24:30;100042.25;;;17.41;65.69
19286;BME280;9776;50.798;6.430;2022-10-22T09:27:00;100045.34;;;17.45;65.70
19286;BME280;9776;50.798;6.430;2022-10-22T09:29:31;100042.47;;;17.40;65.40
19286;BME280;9776;50.798;6.430;2022-10-22T09:31:58;100049.25;;;17.42;65.47
19286;BME280;9776;50.798;6.430;2022-10-22T09:34:27;100049.25;;;17.49;65.12
19286;BME280;9776;50.798;6.430;2022-10-22T09:36:57;100050.50;;;17.53;65.07
19286;BME280;9776;50.798;6.430;2022-10-22T09:39:26;100049.25;;;17.49;64.78
19286;BME280;9776;50.798;6.430;2022-10-22T09:41:53;100057.53;;;17.54;64.92
19286;BME280;9776;50.798;6.430;2022-10-22T09:44:20;100070.66;;;17.55;64.56
19286;BME280;9776;50.798;6.430;2022-10-22T09:46:47;100064.47;;;17.55;64.96
19286;BME280;9776;50.798;6.430;2022-10-22T09:49:15;100073.31;;;17.55;64.89
19286;BME280;9776;50.798;6.430;2022-10-22T09:51:50;100071.84;;;17.53;64.85
19286;BME280;9776;50.798;6.430;2022-10-22T09:54:19;100074.06;;;17.49;64.76
19286;BME280;9776;50.798;6.430;2022-10-22T09:56:51;100078.97;;;17.39;65.18
19286;BME280;9776;50.798;6.430;2022-10-22T09:59:25;100082.63;;;17.32;64.93
19286;BME280;9776;50.798;6.430;2022-10-22T10:02:00;100081.22;;;17.36;64.93
19286;BME280;9776;50.798;6.430;2022-10-22T10:04:27;100091.66;;;17.31;65.07
19286;BME280;9776;50.798;6.430;2022-10-22T10:07:00;100095.56;;;17.35;65.00
19286;BME280;9776;50.798;6.430;2022-10-22T10:09:28;100097.06;;;17.44;64.54
19286;BME280;9776;50.798;6.430;2022-10-22T10:12:04;100104.69;;;17.53;64.21
19286;BME280;9776;50.798;6.430;2022-10-22T10:14:42;100097.53;;;17.54;63.83
19286;BME280;9776;50.798;6.430;2022-10-22T10:17:18;100095.03;;;17.52;64.07
19286;BME280;9776;50.798;6.430;2022-10-22T10:19:59;100100.22;;;17.54;63.64
19286;BME280;9776;50.798;6.430;2022-10-22T10:22:50;100100.84;;;17.56;63.42
19286;BME280;9776;50.798;6.430;2022-10-22T10:25:31;100107.03;;;17.63;63.27
19286;BME280;9776;50.798;6.430;2022-10-22T10:28:08;100107.44;;;17.60;63.46
19286;BME280;9776;50.798;6.430;2022-10-22T10:30:43;100111.53;;;17.69;62.98
19286;BME280;9776;50.798;6.430;2022-10-22T10:33:21;100106.41;;;17.68;63.09
19286;BME280;9776;50.798;6.430;2022-10-22T10:35:53;100112.41;;;17.76;62.78
19286;BME280;9776;50.798;6.430;2022-10-22T10:38:37;100112.78;;;17.73;62.69
19286;BME280;9776;50.798;6.430;2022-10-22T10:41:16;100120.63;;;17.81;62.72
19286;BME280;9776;50.798;6.430;2022-10-22T10:43:55;100126.19;;;17.86;62.51
19286;BME280;9776;50.798;6.430;2022-10-22T10:46:33;100126.59;;;17.90;62.50
19286;BME280;9776;50.798;6.430;2022-10-22T10:49:07;100119.44;;;17.97;62.25
19286;BME280;9776;50.798;6.430;2022-10-22T10:51:40;100128.47;;;17.96;62.04
19286;BME280;9776;50.798;6.430;2022-10-22T10:54:39;100131.75;;;17.98;61.96
19286;BME280;9776;50.798;6.430;2022-10-22T10:57:15;100125.22;;;18.00;61.74
19286;BME280;9776;50.798;6.430;2022-10-22T10:59:56;100126.84;;;17.95;61.79
19286;BME280;9776;50.798;6.430;2022-10-22T11:02:49;100132.56;;;17.85;61.76
19286;BME280;9776;50.798;6.430;2022-10-22T11:05:30;100126.81;;;17.88;61.87
19286;BME280;9776;50.798;6.430;2022-10-22T11:08:02;100138.31;;;17.95;61.72
19286;BME280;9776;50.798;6.430;2022-10-22T11:10:36;100142.06;;;18.07;61.35
19286;BME280;9776;50.798;6.430;2022-10-22T11:13:11;100140.44;;;18.26;60.97
19286;BME280;9776;50.798;6.430;2022-10-22T11:15:45;100138.41;;;18.35;60.63
19286;BME280;9776;50.798;6.430;2022-10-22T11:18:18;100139.41;;;18.34;60.88
19286;BME280;9776;50.798;6.430;2022-10-22T11:20:54;100137.56;;;18.28;60.98
19286;BME280;9776;50.798;6.430;2022-10-22T11:23:27;100143.53;;;18.23;61.18
19286;BME280;9776;50.798;6.430;2022-10-22T11:26:00;100150.72;;;18.23;61.08
19286;BME280;9776;50.798;6.430;2022-10-22T11:28:31;100153.59;;;18.14;61.22
19286;BME280;9776;50.798;6.430;2022-10-22T11:31:00;100144.53;;;18.09;61.42
19286;BME280;9776;50.798;6.430;2022-10-22T11:33:35;100142.88;;;18.08;61.28
19286;BME280;9776;50.798;6.430;2022-10-22T11:36:05;100139.81;;;18.24;61.17
19286;BME280;9776;50.798;6.430;2022-10-22T11:38:32;100129.78;;;18.59;60.28
19286;BME280;9776;50.798;6.430;2022-10-22T11:41:05;100133.78;;;19.34;58.79
19286;BME280;9776;50.798;6.430;2022-10-22T11:43:34;100126.47;;;20.11;56.79
19286;BME280;9776;50.798;6.430;2022-10-22T11:46:08;100127.91;;;20.45;56.07
19286;BME280;9776;50.798;6.430;2022-10-22T11:49:01;100125.00;;;20.89;54.70
19286;BME280;9776;50.798;6.430;2022-10-22T11:51:31;100123.25;;;20.83;54.85
19286;BME280;9776;50.798;6.430;2022-10-22T11:54:01;100114.81;;;20.55;55.35
19286;BME280;9776;50.798;6.430;2022-10-22T11:56:37;100114.44;;;20.76;54.93
19286;BME280;9776;50.798;6.430;2022-10-22T11:59:33;100121.53;;;21.98;52.12
19286;BME280;9776;50.798;6.430;2022-10-22T12:02:22;100100.03;;;22.39;50.98
19286;BME280;9776;50.798;6.430;2022-10-22T12:04:50;100098.38;;;22.38;51.06
19286;BME280;9776;50.798;6.430;2022-10-22T12:07:31;100092.56;;;22.12;51.34
19286;BME280;9776;50.798;6.430;2022-10-22T12:09:58;100087.25;;;21.64;52.37
19286;BME280;9776;50.798;6.430;2022-10-22T12:12:26;100093.41;;;21.16;53.22
19286;BME280;9776;50.798;6.430;2022-10-22T12:14:56;100096.03;;;20.80;53.83
19286;BME280;9776;50.798;6.430;2022-10-22T12:17:24;100085.25;;;20.62;54.19
19286;BME280;9776;50.798;6.430;2022-10-22T12:19:56;100081.31;;;20.64;53.98
19286;BME280;9776;50.798;6.430;2022-10-22T12:22:26;100080.66;;;21.12;52.89
19286;BME280;9776;50.798;6.430;2022-10-22T12:24:55;100073.91;;;21.57;51.85
19286;BME280;9776;50.798;6.430;2022-10-22T12:27:24;100082.72;;;23.05;48.64
19286;BME280;9776;50.798;6.430;2022-10-22T12:29:55;100081.75;;;24.86;45.19
19286;BME280;9776;50.798;6.430;2022-10-22T12:32:31;100094.19;;;25.95;42.96
19286;BME280;9776;50.798;6.430;2022-10-22T12:35:04;100086.28;;;27.31;40.59
19286;BME280;9776;50.798;6.430;2022-10-22T12:37:34;100086.25;;;27.21;40.50
19286;BME280;9776;50.798;6.430;2022-10-22T12:40:02;100088.44;;;26.45;41.86
19286;BME280;9776;50.798;6.430;2022-10-22T12:42:28;100088.41;;;26.40;41.69
19286;BME280;9776;50.798;6.430;2022-10-22T12:44:56;100080.13;;;27.45;40.00
19286;BME280;9776;50.798;6.430;2022-10-22T12:47:23;100082.06;;;27.55;39.53
19286;BME280;9776;50.798;6.430;2022-10-22T12:49:50;100079.22;;;28.37;37.92
19286;BME280;9776;50.798;6.430;2022-10-22T12:52:18;100078.66;;;28.60;37.01
19286;BME280;9776;50.798;6.430;2022-10-22T12:54:49;100083.03;;;28.46;36.91
19286;BME280;9776;50.798;6.430;2022-10-22T12:57:18;100076.66;;;27.55;38.66
19286;BME280;9776;50.798;6.430;2022-10-22T12:59:47;100074.63;;;28.07;37.98
19286;BME280;9776;50.798;6.430;2022-10-22T13:02:19;100076.78;;;28.36;37.51
19286;BME280;9776;50.798;6.430;2022-10-22T13:05:11;100067.97;;;29.24;36.08
19286;BME280;9776;50.798;6.430;2022-10-22T13:07:41;100060.06;;;29.77;35.14
19286;BME280;9776;50.798;6.430;2022-10-22T13:10:17;100070.91;;;29.87;34.89
19286;BME280;9776;50.798;6.430;2022-10-22T13:12:48;100067.00;;;29.54;35.18
19286;BME280;9776;50.798;6.430;2022-10-22T13:15:21;100063.88;;;29.22;35.39
19286;BME280;9776;50.798;6.430;2022-10-22T13:17:49;100069.75;;;28.30;36.65
19286;BME280;9776;50.798;6.430;2022-10-22T13:20:19;100073.22;;;27.13;38.80
19286;BME280;9776;50.798;6.430;2022-10-22T13:22:53;100074.63;;;25.83;40.93